Portada
METAR-TAF:

METAR-TAF

Aeropuertos :

Santander, España

Aeropuerto de Santander

latitud: 43-26N, longitud: 003-49W, altitud: 6 m

Observación

El informe se hizo hace 17 minutos, a las 08:00 UTC
Viento 4 kt del oeste, variando entre sur-suroeste y oeste-noroeste
Temperatura 14°C
Humedad 58%
Presión 1025 hPa
Visibilidad 10 km o más
Escasas nubes a una altura de 4000 ft
Nubes dispersas a una altura de 8000 ft

METAR: LEXJ 280800Z 26004KT 210V300 9999 FEW040 SCT080 14/06 Q1025

Hora: 10:17 (08:17 UTC)

Pronóstico

El informe se hizo hace 6 horas y 17 minutos, a las 02:00 UTC
Pronóstico válido del 28 a las 03 UTC al 29 a las 03 UTC
Viento 5 kt del sur-sureste
Visibilidad 10 km o más
sin nubes por debajo de 1500 m y sin presencia de cumulonimbus.
Temporalmente
del 28 a las 12 UTC al 28 a las 17 UTC
Viento 10 kt del noreste

TAF: LEXJ 280200Z 2803/2903 16005KT CAVOK TX19/2815Z TN09/2806Z TEMPO 2812/2817 05010KT

Observaciones y pronósticos meteorológicos de más de 4000 aeropuertos (mensajes METAR y TAF).

Los puntos amarillos y rojos representan las estaciones disponibles.

Ponga el ratón en el punto deseado para ver el nombre de la estación.

Haga clic para ver las observaciones y los pronósticos meteorológicos.

Para cambiar el mapa : haga clic en los botones verdes con una cruz de color negro para hacer un zoom, en el botón verde con un guión para alejar o en las flechas verdes para mapas adyacentes.


METAR-TAF: